createdAt,value
2023-03-24T00:02:03.273Z,73.31
2023-03-24T00:04:36.550Z,73.56
2023-03-24T00:07:09.677Z,73.59
2023-03-24T00:09:43.032Z,74.14
2023-03-24T00:12:18.686Z,74.01
2023-03-24T00:14:54.505Z,74.61
2023-03-24T00:17:29.288Z,74.42
2023-03-24T00:20:02.023Z,74.54
2023-03-24T00:22:34.800Z,74.49
2023-03-24T00:25:07.757Z,74.84
2023-03-24T00:27:41.968Z,75.01
2023-03-24T00:30:14.736Z,74.36
2023-03-24T00:32:47.799Z,74.20
2023-03-24T00:35:20.988Z,74.07
2023-03-24T00:37:53.812Z,74.11
2023-03-24T00:40:27.871Z,74.04
2023-03-24T00:43:02.120Z,73.51
2023-03-24T00:45:34.843Z,74.02
2023-03-24T00:48:07.644Z,73.78
2023-03-24T00:50:41.920Z,73.78
2023-03-24T00:53:16.135Z,73.55
2023-03-24T00:55:50.060Z,73.51
2023-03-24T00:58:24.261Z,73.18
2023-03-24T01:00:58.867Z,73.17
2023-03-24T01:03:34.421Z,73.49
2023-03-24T01:06:07.512Z,73.43
2023-03-24T01:08:40.356Z,73.42
2023-03-24T01:11:13.182Z,73.49
2023-03-24T01:13:47.393Z,73.81
2023-03-24T01:16:20.103Z,73.57
2023-03-24T01:18:53.091Z,73.62
2023-03-24T01:21:26.159Z,73.72
2023-03-24T01:23:59.077Z,74.03
2023-03-24T01:26:32.164Z,73.75
2023-03-24T01:29:06.773Z,73.90
2023-03-24T01:31:39.538Z,73.97
2023-03-24T01:34:12.308Z,74.13
2023-03-24T01:36:45.024Z,73.84
2023-03-24T01:39:17.801Z,74.18
2023-03-24T01:41:50.631Z,74.31
2023-03-24T01:44:29.726Z,73.93
2023-03-24T01:47:02.857Z,74.20
2023-03-24T01:49:38.146Z,74.27
2023-03-24T01:52:13.514Z,74.13
2023-03-24T01:54:48.537Z,74.07
2023-03-24T01:57:23.015Z,73.97
2023-03-24T01:59:58.881Z,74.27
2023-03-24T02:02:35.930Z,74.33
2023-03-24T02:05:10.477Z,74.21
2023-03-24T02:07:48.691Z,74.30
2023-03-24T02:10:21.977Z,74.36
2023-03-24T02:12:54.663Z,74.56
2023-03-24T02:15:30.066Z,74.87
2023-03-24T02:18:08.135Z,74.54
2023-03-24T02:20:50.922Z,74.54
2023-03-24T02:23:34.575Z,74.80
2023-03-24T02:26:31.915Z,74.85
2023-03-24T02:29:13.163Z,74.67
2023-03-24T02:32:06.288Z,74.60
2023-03-24T02:34:51.690Z,74.99
2023-03-24T02:37:44.095Z,74.73
2023-03-24T02:40:24.142Z,75.06
2023-03-24T02:43:13.246Z,74.78
2023-03-24T02:45:51.203Z,74.80
2023-03-24T02:48:30.444Z,75.00
2023-03-24T02:51:06.423Z,74.89
2023-03-24T02:53:44.519Z,74.92
2023-03-24T02:56:23.409Z,74.90
2023-03-24T02:59:00.564Z,75.12
2023-03-24T03:01:36.051Z,75.09
2023-03-24T03:04:10.406Z,75.04
2023-03-24T03:06:45.512Z,75.32
2023-03-24T03:09:19.213Z,74.98
2023-03-24T03:11:55.652Z,75.13
2023-03-24T03:14:32.325Z,75.13
2023-03-24T03:17:06.834Z,75.03
2023-03-24T03:19:41.435Z,75.23
2023-03-24T03:22:16.627Z,74.80
2023-03-24T03:24:53.109Z,74.88
2023-03-24T03:27:31.405Z,74.80
2023-03-24T03:30:06.248Z,74.84
2023-03-24T03:32:43.036Z,74.96
2023-03-24T03:35:18.470Z,75.23
2023-03-24T03:37:54.930Z,74.78
2023-03-24T03:40:32.466Z,74.74
2023-03-24T03:43:06.886Z,74.82
2023-03-24T03:45:39.676Z,74.88
2023-03-24T03:48:12.507Z,75.04
2023-03-24T03:50:45.406Z,74.75
2023-03-24T03:53:20.366Z,74.74
2023-03-24T03:55:53.790Z,75.11
2023-03-24T03:58:28.950Z,75.50
2023-03-24T04:01:01.860Z,75.15
2023-03-24T04:03:45.371Z,75.13
2023-03-24T04:06:25.597Z,75.15
2023-03-24T04:09:04.619Z,75.50
2023-03-24T04:11:42.686Z,75.22
2023-03-24T04:14:34.832Z,75.43
2023-03-24T04:17:13.255Z,75.14
2023-03-24T04:19:55.869Z,75.37
2023-03-24T04:22:33.975Z,75.17
2023-03-24T04:25:14.325Z,75.04
2023-03-24T04:27:48.962Z,75.15
2023-03-24T04:30:25.659Z,74.95
2023-03-24T04:33:00.310Z,74.83
2023-03-24T04:35:35.155Z,74.85
2023-03-24T04:38:10.269Z,75.07
2023-03-24T04:40:44.027Z,75.20
2023-03-24T04:43:18.412Z,75.32
2023-03-24T04:45:53.001Z,75.40
2023-03-24T04:48:26.536Z,75.54
2023-03-24T04:51:00.768Z,75.67
2023-03-24T04:53:33.494Z,75.98
2023-03-24T04:56:11.110Z,75.74
2023-03-24T04:58:44.132Z,75.91
2023-03-24T05:01:21.472Z,76.04
2023-03-24T05:03:54.574Z,76.10
2023-03-24T05:06:27.609Z,76.23
2023-03-24T05:09:00.732Z,76.28
2023-03-24T05:11:33.397Z,76.17
2023-03-24T05:14:06.111Z,76.11
2023-03-24T05:16:40.242Z,76.17
2023-03-24T05:19:13.026Z,76.59
2023-03-24T05:21:45.733Z,76.24
2023-03-24T05:24:20.620Z,76.65
2023-03-24T05:26:53.395Z,76.64
2023-03-24T05:29:26.427Z,76.50
2023-03-24T05:32:00.561Z,75.94
2023-03-24T05:34:33.404Z,75.98
2023-03-24T05:37:06.804Z,76.18
2023-03-24T05:39:39.585Z,76.07
2023-03-24T05:42:12.298Z,76.14
2023-03-24T05:44:45.875Z,75.71
2023-03-24T05:47:20.283Z,76.13
2023-03-24T05:49:53.050Z,75.85
2023-03-24T05:52:27.424Z,75.73
2023-03-24T05:55:01.607Z,75.87
2023-03-24T05:57:34.742Z,75.83
2023-03-24T06:00:10.661Z,75.85
2023-03-24T06:02:45.263Z,75.81
2023-03-24T06:05:18.056Z,76.04
2023-03-24T06:07:50.806Z,75.72
2023-03-24T06:10:26.556Z,75.75
2023-03-24T06:12:59.242Z,76.21
2023-03-24T06:15:32.025Z,75.74
2023-03-24T06:18:06.983Z,76.08
2023-03-24T06:20:41.429Z,76.07
2023-03-24T06:23:15.439Z,75.67
2023-03-24T06:25:51.003Z,76.14
2023-03-24T06:28:26.289Z,76.15
2023-03-24T06:30:59.498Z,76.19
2023-03-24T06:33:34.596Z,76.08
2023-03-24T06:36:08.121Z,76.14
2023-03-24T06:38:41.985Z,76.25
2023-03-24T06:41:14.629Z,76.10
2023-03-24T06:43:47.348Z,76.33
2023-03-24T06:46:20.428Z,76.34
2023-03-24T06:48:54.734Z,76.31
2023-03-24T06:51:27.411Z,76.44
2023-03-24T06:54:00.114Z,76.24
2023-03-24T06:56:32.769Z,76.63
2023-03-24T06:59:05.612Z,76.30
2023-03-24T07:01:38.832Z,76.14
2023-03-24T07:04:12.912Z,76.48
2023-03-24T07:06:56.657Z,76.59
2023-03-24T07:09:38.668Z,76.43
2023-03-24T07:12:13.984Z,76.20
2023-03-24T07:14:47.487Z,76.40
2023-03-24T07:17:20.545Z,76.28
2023-03-24T07:19:54.569Z,76.28
2023-03-24T07:22:27.249Z,76.23
2023-03-24T07:25:04.497Z,76.39
2023-03-24T07:27:39.406Z,76.24
2023-03-24T07:30:13.514Z,76.52
2023-03-24T07:32:46.260Z,76.36
2023-03-24T07:35:20.811Z,76.39
2023-03-24T07:37:53.576Z,76.70
2023-03-24T07:40:26.283Z,76.69
2023-03-24T07:43:01.307Z,76.07
2023-03-24T07:45:34.302Z,76.63
2023-03-24T07:48:07.331Z,76.26
2023-03-24T07:50:41.584Z,76.36
2023-03-24T07:53:18.621Z,76.43
2023-03-24T07:55:51.985Z,76.39
2023-03-24T07:58:25.076Z,76.14
2023-03-24T08:00:57.795Z,76.28
2023-03-24T08:03:31.914Z,76.77
2023-03-24T08:06:07.095Z,76.24
2023-03-24T08:08:39.890Z,76.59
2023-03-24T08:11:12.541Z,76.52
2023-03-24T08:13:45.213Z,76.62
2023-03-24T08:16:17.949Z,76.88
2023-03-24T08:18:50.889Z,77.04
2023-03-24T08:21:25.430Z,77.37
2023-03-24T08:23:58.237Z,77.77
2023-03-24T08:26:31.148Z,76.89
2023-03-24T08:29:04.060Z,77.47
2023-03-24T08:31:37.904Z,77.90
2023-03-24T08:34:11.706Z,77.18
2023-03-24T08:36:45.851Z,77.28
2023-03-24T08:39:18.600Z,77.15
2023-03-24T08:41:51.695Z,76.79
2023-03-24T08:44:24.800Z,75.85
2023-03-24T08:46:57.606Z,75.91
2023-03-24T08:49:30.753Z,76.33
2023-03-24T08:52:05.654Z,76.12
2023-03-24T08:54:38.515Z,76.63
2023-03-24T08:57:11.618Z,76.43
2023-03-24T08:59:44.734Z,76.96
2023-03-24T09:02:17.730Z,76.79
2023-03-24T09:04:54.187Z,77.00
2023-03-24T09:07:28.416Z,77.14
2023-03-24T09:10:01.151Z,77.36
2023-03-24T09:12:34.821Z,77.37
2023-03-24T09:15:10.103Z,77.11
2023-03-24T09:17:44.480Z,77.15
2023-03-24T09:20:18.732Z,77.19
2023-03-24T09:22:52.790Z,77.33
2023-03-24T09:25:25.457Z,77.58
2023-03-24T09:27:58.119Z,77.80
2023-03-24T09:30:33.332Z,78.08
2023-03-24T09:33:07.746Z,78.43
2023-03-24T09:35:41.162Z,78.21
2023-03-24T09:38:15.219Z,77.74
2023-03-24T09:40:50.374Z,77.11
2023-03-24T09:43:27.376Z,76.65
2023-03-24T09:46:02.032Z,76.47
2023-03-24T09:48:37.002Z,76.14
2023-03-24T09:51:11.901Z,75.77
2023-03-24T09:53:50.635Z,75.58
2023-03-24T09:56:24.247Z,75.27
2023-03-24T09:59:02.829Z,75.44
2023-03-24T10:01:36.556Z,75.36
2023-03-24T10:04:14.846Z,75.08
2023-03-24T10:06:53.045Z,75.17
2023-03-24T10:09:28.893Z,74.81
2023-03-24T10:12:12.289Z,74.80
2023-03-24T10:14:57.050Z,74.87
2023-03-24T10:17:36.610Z,74.85
2023-03-24T10:20:16.899Z,74.95
2023-03-24T10:22:55.090Z,75.14
2023-03-24T10:25:37.374Z,75.10
2023-03-24T10:28:15.931Z,74.91
2023-03-24T10:30:49.541Z,74.37
2023-03-24T10:33:22.712Z,74.52
2023-03-24T10:35:58.821Z,75.43
2023-03-24T10:38:31.706Z,75.64
2023-03-24T10:41:06.174Z,76.07
2023-03-24T10:43:39.936Z,76.54
2023-03-24T10:46:15.704Z,77.09
2023-03-24T10:48:49.846Z,77.61
2023-03-24T10:51:24.638Z,77.99
2023-03-24T10:54:11.893Z,78.26
2023-03-24T10:56:47.127Z,77.24
2023-03-24T10:59:22.733Z,76.85
2023-03-24T11:02:12.606Z,76.49
2023-03-24T11:04:48.614Z,76.32
2023-03-24T11:07:22.708Z,76.26
2023-03-24T11:09:59.289Z,76.16
2023-03-24T11:12:34.338Z,75.77
2023-03-24T11:15:21.099Z,75.70
2023-03-24T11:17:57.262Z,75.42
2023-03-24T11:20:32.796Z,75.37
2023-03-24T11:23:07.588Z,75.12
2023-03-24T11:25:42.088Z,74.64
2023-03-24T11:28:18.748Z,74.25
2023-03-24T11:30:52.926Z,74.21
2023-03-24T11:33:35.227Z,73.92
2023-03-24T11:36:30.736Z,73.97
2023-03-24T11:39:05.531Z,73.87
2023-03-24T11:41:39.567Z,73.95
2023-03-24T11:44:20.095Z,74.42
2023-03-24T11:46:56.216Z,74.50
2023-03-24T11:49:31.971Z,73.94
2023-03-24T11:52:08.838Z,74.29
2023-03-24T11:54:41.633Z,74.87
2023-03-24T11:57:17.724Z,74.95
2023-03-24T11:59:58.050Z,75.98
2023-03-24T12:02:43.416Z,76.38
2023-03-24T12:05:25.347Z,76.18
2023-03-24T12:08:04.214Z,76.89
2023-03-24T12:10:51.060Z,76.31
2023-03-24T12:13:33.301Z,75.22
2023-03-24T12:16:13.563Z,74.12
2023-03-24T12:18:55.109Z,72.46
2023-03-24T12:21:38.151Z,73.14
2023-03-24T12:24:18.705Z,71.87
2023-03-24T12:26:53.952Z,71.02
2023-03-24T12:29:34.205Z,72.13
2023-03-24T12:32:21.760Z,71.79
2023-03-24T12:35:07.364Z,71.87
2023-03-24T12:37:46.120Z,72.34
2023-03-24T12:40:36.242Z,72.86
2023-03-24T12:43:15.597Z,73.77
2023-03-24T12:45:52.731Z,74.03
2023-03-24T12:48:45.380Z,73.13
2023-03-24T12:51:25.562Z,72.74
2023-03-24T12:54:07.108Z,73.20
2023-03-24T12:56:42.626Z,73.33
2023-03-24T12:59:19.485Z,73.33
2023-03-24T13:01:53.762Z,73.46
2023-03-24T13:04:27.858Z,74.13
2023-03-24T13:07:06.551Z,74.31
2023-03-24T13:09:46.293Z,74.12
2023-03-24T13:12:21.370Z,74.65
2023-03-24T13:14:58.977Z,74.28
2023-03-24T13:17:34.642Z,74.77
2023-03-24T13:20:11.027Z,74.58
2023-03-24T13:22:46.524Z,74.67
2023-03-24T13:25:24.318Z,74.92
2023-03-24T13:27:59.578Z,74.83
2023-03-24T13:30:34.475Z,75.01
2023-03-24T13:33:12.013Z,74.87
2023-03-24T13:36:09.049Z,75.28
2023-03-24T13:38:46.167Z,75.33
2023-03-24T13:41:20.784Z,75.27
2023-03-24T13:43:59.305Z,75.31
2023-03-24T13:46:32.162Z,75.14
2023-03-24T13:49:07.760Z,75.14
2023-03-24T13:51:44.871Z,75.30
2023-03-24T13:54:20.868Z,75.01
2023-03-24T13:56:54.576Z,75.02
2023-03-24T13:59:28.665Z,74.92
2023-03-24T14:02:21.938Z,75.29
2023-03-24T14:05:05.930Z,75.21
2023-03-24T14:07:46.446Z,75.27
2023-03-24T14:10:34.060Z,75.51
2023-03-24T14:13:20.183Z,75.40
2023-03-24T14:15:54.168Z,75.70
2023-03-24T14:18:43.191Z,75.64
2023-03-24T14:21:16.203Z,75.25
2023-03-24T14:23:52.109Z,75.30
2023-03-24T14:26:31.030Z,75.39
2023-03-24T14:29:07.226Z,75.22
2023-03-24T14:31:40.057Z,75.80
2023-03-24T14:34:16.593Z,75.67
2023-03-24T14:36:59.984Z,75.94
2023-03-24T14:39:35.791Z,76.03
2023-03-24T14:42:26.995Z,76.03
2023-03-24T14:45:01.920Z,75.78
2023-03-24T14:47:36.039Z,75.91
2023-03-24T14:50:13.951Z,75.80
2023-03-24T14:52:51.193Z,75.77
2023-03-24T14:55:24.112Z,75.47
2023-03-24T14:57:57.794Z,75.68
2023-03-24T15:00:33.765Z,75.68
2023-03-24T15:03:17.975Z,75.50
2023-03-24T15:05:51.060Z,75.54
2023-03-24T15:08:24.286Z,75.46
2023-03-24T15:10:58.765Z,75.73
2023-03-24T15:13:36.197Z,75.62
2023-03-24T15:16:18.599Z,75.62
2023-03-24T15:19:00.772Z,75.34
2023-03-24T15:21:37.078Z,75.15
2023-03-24T15:24:26.862Z,75.54
2023-03-24T15:27:15.944Z,75.40
2023-03-24T15:29:54.223Z,75.14
2023-03-24T15:32:32.226Z,75.33
2023-03-24T15:35:06.663Z,75.43
2023-03-24T15:37:41.638Z,75.10
2023-03-24T15:40:30.584Z,75.34
2023-03-24T15:43:04.885Z,74.95
2023-03-24T15:45:39.596Z,74.93
2023-03-24T15:48:15.861Z,69.30
2023-03-24T15:50:59.728Z,71.78
2023-03-24T15:53:41.804Z,70.20
2023-03-24T15:56:18.848Z,71.95
2023-03-24T15:58:53.253Z,72.37
2023-03-24T16:01:31.686Z,72.47
2023-03-24T16:04:07.535Z,72.48
2023-03-24T16:06:43.110Z,72.62
2023-03-24T16:09:16.818Z,72.98
2023-03-24T16:11:50.257Z,73.59
2023-03-24T16:14:24.513Z,73.94
2023-03-24T16:16:57.979Z,74.24
2023-03-24T16:19:32.910Z,74.76
2023-03-24T16:22:10.522Z,75.05
2023-03-24T16:24:43.576Z,75.48
2023-03-24T16:27:16.845Z,75.81
2023-03-24T16:29:50.180Z,76.27
2023-03-24T16:32:23.123Z,76.65
2023-03-24T16:34:57.352Z,76.99
2023-03-24T16:37:30.250Z,77.11
2023-03-24T16:40:03.869Z,77.25
2023-03-24T16:42:37.264Z,77.49
2023-03-24T16:45:10.854Z,77.61
2023-03-24T16:47:43.705Z,77.63
2023-03-24T16:50:27.451Z,77.69
2023-03-24T16:53:01.321Z,77.34
2023-03-24T16:55:34.454Z,77.41
2023-03-24T16:58:07.398Z,77.11
2023-03-24T17:00:40.574Z,77.08
2023-03-24T17:03:14.319Z,76.94
2023-03-24T17:05:49.600Z,76.91
2023-03-24T17:08:22.350Z,76.72
2023-03-24T17:10:55.441Z,76.86
2023-03-24T17:13:28.276Z,76.76
2023-03-24T17:16:01.564Z,77.03
2023-03-24T17:18:34.281Z,77.60
2023-03-24T17:21:12.877Z,77.65
2023-03-24T17:23:47.195Z,78.03
2023-03-24T17:26:19.965Z,78.23
2023-03-24T17:28:52.703Z,78.54
2023-03-24T17:31:25.456Z,78.12
2023-03-24T17:34:00.331Z,78.69
2023-03-24T17:36:38.315Z,78.63
2023-03-24T17:39:13.751Z,78.81
2023-03-24T17:41:46.950Z,78.97
2023-03-24T17:44:20.190Z,79.04
2023-03-24T17:46:53.309Z,79.28
2023-03-24T17:49:26.595Z,78.40
2023-03-24T17:52:00.806Z,78.44
2023-03-24T17:54:33.614Z,78.82
2023-03-24T17:57:06.612Z,78.72
2023-03-24T17:59:39.402Z,78.57
2023-03-24T18:02:13.879Z,78.54
2023-03-24T18:04:47.702Z,78.62
2023-03-24T18:07:23.086Z,78.66
2023-03-24T18:09:55.827Z,78.80
2023-03-24T18:12:28.926Z,78.45
2023-03-24T18:15:01.731Z,78.40
2023-03-24T18:17:34.646Z,78.53
2023-03-24T18:20:10.263Z,78.70
2023-03-24T18:22:44.870Z,78.43
2023-03-24T18:25:17.688Z,77.97
2023-03-24T18:27:50.756Z,78.57
2023-03-24T18:30:23.729Z,78.43
2023-03-24T18:32:56.818Z,78.41
2023-03-24T18:35:29.717Z,77.91
2023-03-24T18:38:03.783Z,77.69
2023-03-24T18:40:36.540Z,77.80
2023-03-24T18:43:09.321Z,77.75
2023-03-24T18:45:42.139Z,77.49
2023-03-24T18:48:15.838Z,77.20
2023-03-24T18:50:51.779Z,77.54
2023-03-24T18:53:26.070Z,77.52
2023-03-24T18:55:58.869Z,77.50
2023-03-24T18:58:32.056Z,77.46
2023-03-24T19:01:07.307Z,77.66
2023-03-24T19:03:41.954Z,77.86
2023-03-24T19:06:15.682Z,77.34
2023-03-24T19:08:54.409Z,77.48
2023-03-24T19:11:27.535Z,76.76
2023-03-24T19:14:00.694Z,76.74
2023-03-24T19:16:33.658Z,76.62
2023-03-24T19:19:06.969Z,76.70
2023-03-24T19:21:40.455Z,75.98
2023-03-24T19:24:15.149Z,76.65
2023-03-24T19:26:48.341Z,76.26
2023-03-24T19:29:21.556Z,76.34
2023-03-24T19:31:54.287Z,75.63
2023-03-24T19:34:27.483Z,76.23
2023-03-24T19:37:00.286Z,75.99
2023-03-24T19:39:34.491Z,76.35
2023-03-24T19:42:07.897Z,75.79
2023-03-24T19:44:41.010Z,75.78
2023-03-24T19:47:13.725Z,76.16
2023-03-24T19:49:46.958Z,76.02
2023-03-24T19:52:19.818Z,75.85
2023-03-24T19:54:54.135Z,75.69
2023-03-24T19:57:30.418Z,76.06
2023-03-24T20:00:03.988Z,76.26
2023-03-24T20:02:37.495Z,76.07
2023-03-24T20:05:11.130Z,76.14
2023-03-24T20:07:44.179Z,76.25
2023-03-24T20:10:21.181Z,76.39
2023-03-24T20:12:54.414Z,76.48
2023-03-24T20:15:27.348Z,75.67
2023-03-24T20:18:00.298Z,76.10
2023-03-24T20:20:33.130Z,76.35
2023-03-24T20:23:06.634Z,76.52
2023-03-24T20:25:43.310Z,76.55
2023-03-24T20:28:17.238Z,76.34
2023-03-24T20:30:51.813Z,76.28
2023-03-24T20:33:24.612Z,76.41
2023-03-24T20:35:57.801Z,76.19
2023-03-24T20:38:31.153Z,76.71
2023-03-24T20:41:07.162Z,76.69
2023-03-24T20:43:40.343Z,76.75
2023-03-24T20:46:14.967Z,76.81
2023-03-24T20:48:47.705Z,76.44
2023-03-24T20:51:20.744Z,76.76
2023-03-24T20:53:53.827Z,76.83
2023-03-24T20:56:28.380Z,76.58
2023-03-24T20:59:02.674Z,76.82
2023-03-24T21:01:37.007Z,76.73
2023-03-24T21:04:10.622Z,77.59
2023-03-24T21:06:43.804Z,77.77
2023-03-24T21:09:17.074Z,78.25
2023-03-24T21:11:51.639Z,78.83
2023-03-24T21:14:25.081Z,78.38
2023-03-24T21:16:58.151Z,78.63
2023-03-24T21:19:30.985Z,78.54
2023-03-24T21:22:03.781Z,77.78
2023-03-24T21:24:36.600Z,77.97
2023-03-24T21:27:10.837Z,77.61
2023-03-24T21:29:43.647Z,77.23
2023-03-24T21:32:16.391Z,76.99
2023-03-24T21:34:49.212Z,77.28
2023-03-24T21:37:25.712Z,76.77
2023-03-24T21:39:58.643Z,76.49
2023-03-24T21:42:34.995Z,76.75
2023-03-24T21:45:08.243Z,77.37
2023-03-24T21:47:41.026Z,77.02
2023-03-24T21:50:14.361Z,76.64
2023-03-24T21:52:48.024Z,76.87
2023-03-24T21:55:21.841Z,76.90
2023-03-24T21:57:56.723Z,77.05
2023-03-24T22:00:30.676Z,77.13
2023-03-24T22:03:03.907Z,77.02
2023-03-24T22:05:39.031Z,76.52
2023-03-24T22:08:12.299Z,76.69
2023-03-24T22:10:45.978Z,76.99
2023-03-24T22:13:20.558Z,77.33
2023-03-24T22:15:54.922Z,77.10
2023-03-24T22:18:28.383Z,77.73
2023-03-24T22:21:03.249Z,77.70
2023-03-24T22:23:38.078Z,77.86
2023-03-24T22:26:11.941Z,77.52
2023-03-24T22:28:46.543Z,77.72
2023-03-24T22:31:23.039Z,77.82
2023-03-24T22:33:56.352Z,78.72
2023-03-24T22:36:29.146Z,78.20
2023-03-24T22:39:02.189Z,78.57
2023-03-24T22:41:34.929Z,79.24
2023-03-24T22:44:09.121Z,79.11
2023-03-24T22:46:41.865Z,79.35
2023-03-24T22:49:14.726Z,79.85
2023-03-24T22:51:47.471Z,79.90
2023-03-24T22:54:20.339Z,80.20
2023-03-24T22:56:53.509Z,79.79
2023-03-24T22:59:31.117Z,79.80
2023-03-24T23:02:09.977Z,80.32
2023-03-24T23:04:45.035Z,80.02
2023-03-24T23:07:17.776Z,79.57
2023-03-24T23:09:51.010Z,80.26
2023-03-24T23:12:25.100Z,79.70
2023-03-24T23:14:59.345Z,78.97
2023-03-24T23:17:32.398Z,78.80
2023-03-24T23:20:07.578Z,78.75
2023-03-24T23:22:41.102Z,79.19
2023-03-24T23:25:14.058Z,77.91
2023-03-24T23:27:47.590Z,77.71
2023-03-24T23:30:21.800Z,78.38
2023-03-24T23:32:54.870Z,78.06
2023-03-24T23:35:27.954Z,78.20
2023-03-24T23:38:02.369Z,78.29
2023-03-24T23:40:35.194Z,78.57
2023-03-24T23:43:08.244Z,76.81
2023-03-24T23:45:42.734Z,75.89
2023-03-24T23:48:15.742Z,75.64
2023-03-24T23:50:56.008Z,76.40
2023-03-24T23:53:29.529Z,76.02
2023-03-24T23:56:06.851Z,76.33
2023-03-24T23:58:41.348Z,76.76
